Saratoga, Minnesota
Current Conditions -  °F | °C
As of 10:34 PM on Thursday 27 Nov 2014 (Local Time) from KONA Reporting Station
Broken Clouds Broken Clouds  
Wind Chill:   Ceiling: 8000
Heat Index: 12°   Visibility: 10mi
Dew Point:   Wind: 7mph
Humidity: 67%   Direction: 140°SE
Pressure: 30.34"   Gusts: NA
Location:  43.9334°N, 92.0195°W
Report Text: KONA 280434Z AUTO 14006KT 10SM BKN080 BKN100 M11/M16 A3034 RMK AO2
Loading
Personal Weather Stations






























Interactive Weather Map New forecast layout! Learn more

10-Day Weather Forecast

Advertisements
Track Severe Weather on mobile